sensor_id;sensor_type;location;lat;lon;timestamp;temperature;humidity
5218;DHT22;26539;51.064;6.346;2023-12-04T00:01:48;1.30;99.90
5218;DHT22;26539;51.064;6.346;2023-12-04T00:04:14;1.30;1.00
5218;DHT22;26539;51.064;6.346;2023-12-04T00:06:41;1.40;99.90
5218;DHT22;26539;51.064;6.346;2023-12-04T00:09:07;1.40;99.90
5218;DHT22;26539;51.064;6.346;2023-12-04T00:11:32;1.30;1.00
5218;DHT22;26539;51.064;6.346;2023-12-04T00:13:58;1.30;99.90
5218;DHT22;26539;51.064;6.346;2023-12-04T00:16:24;1.30;1.00
5218;DHT22;26539;51.064;6.346;2023-12-04T00:18:50;1.40;1.00
5218;DHT22;26539;51.064;6.346;2023-12-04T00:21:15;1.30;1.00
5218;DHT22;26539;51.064;6.346;2023-12-04T00:23:41;1.30;99.90
5218;DHT22;26539;51.064;6.346;2023-12-04T00:26:06;1.30;1.00
5218;DHT22;26539;51.064;6.346;2023-12-04T00:28:35;1.30;13.20
5218;DHT22;26539;51.064;6.346;2023-12-04T00:31:00;1.30;21.20
5218;DHT22;26539;51.064;6.346;2023-12-04T00:33:26;1.20;56.20
5218;DHT22;26539;51.064;6.346;2023-12-04T00:35:51;1.20;1.00
5218;DHT22;26539;51.064;6.346;2023-12-04T00:38:17;1.20;99.90
5218;DHT22;26539;51.064;6.346;2023-12-04T00:40:42;1.20;99.90
5218;DHT22;26539;51.064;6.346;2023-12-04T00:43:08;1.20;1.00
5218;DHT22;26539;51.064;6.346;2023-12-04T00:45:34;1.20;99.90
5218;DHT22;26539;51.064;6.346;2023-12-04T00:47:59;1.10;1.00
5218;DHT22;26539;51.064;6.346;2023-12-04T00:50:25;1.10;25.90
5218;DHT22;26539;51.064;6.346;2023-12-04T00:52:50;1.20;6.00
5218;DHT22;26539;51.064;6.346;2023-12-04T00:55:16;1.10;99.90
5218;DHT22;26539;51.064;6.346;2023-12-04T00:57:44;1.10;99.90
5218;DHT22;26539;51.064;6.346;2023-12-04T01:00:10;1.20;99.90
5218;DHT22;26539;51.064;6.346;2023-12-04T01:02:36;1.10;99.90
5218;DHT22;26539;51.064;6.346;2023-12-04T01:05:01;1.10;1.00
5218;DHT22;26539;51.064;6.346;2023-12-04T01:07:27;1.20;99.90
5218;DHT22;26539;51.064;6.346;2023-12-04T01:09:52;1.10;99.90
5218;DHT22;26539;51.064;6.346;2023-12-04T01:12:18;1.20;99.90
5218;DHT22;26539;51.064;6.346;2023-12-04T01:14:44;1.20;1.00
5218;DHT22;26539;51.064;6.346;2023-12-04T01:17:09;1.20;99.90
5218;DHT22;26539;51.064;6.346;2023-12-04T01:19:35;1.20;99.90
5218;DHT22;26539;51.064;6.346;2023-12-04T01:22:00;1.10;99.90
5218;DHT22;26539;51.064;6.346;2023-12-04T01:24:26;1.20;99.90
5218;DHT22;26539;51.064;6.346;2023-12-04T01:26:51;1.20;1.00
5218;DHT22;26539;51.064;6.346;2023-12-04T01:29:17;1.20;99.90
5218;DHT22;26539;51.064;6.346;2023-12-04T01:31:42;1.10;99.90
5218;DHT22;26539;51.064;6.346;2023-12-04T01:34:08;1.20;99.90
5218;DHT22;26539;51.064;6.346;2023-12-04T01:36:34;1.20;99.90
5218;DHT22;26539;51.064;6.346;2023-12-04T01:38:59;1.20;99.90
5218;DHT22;26539;51.064;6.346;2023-12-04T01:41:25;1.30;99.90
5218;DHT22;26539;51.064;6.346;2023-12-04T01:43:50;1.20;99.90
5218;DHT22;26539;51.064;6.346;2023-12-04T01:46:17;1.20;99.90
5218;DHT22;26539;51.064;6.346;2023-12-04T01:48:44;1.20;8.20
5218;DHT22;26539;51.064;6.346;2023-12-04T01:51:11;1.20;26.90
5218;DHT22;26539;51.064;6.346;2023-12-04T01:53:38;1.10;99.90
5218;DHT22;26539;51.064;6.346;2023-12-04T01:56:05;1.10;1.00
5218;DHT22;26539;51.064;6.346;2023-12-04T01:58:31;1.10;1.00
5218;DHT22;26539;51.064;6.346;2023-12-04T02:00:57;1.10;1.00
5218;DHT22;26539;51.064;6.346;2023-12-04T02:03:23;1.10;99.90
5218;DHT22;26539;51.064;6.346;2023-12-04T02:05:49;1.10;1.00
5218;DHT22;26539;51.064;6.346;2023-12-04T02:08:16;1.10;99.90
5218;DHT22;26539;51.064;6.346;2023-12-04T02:10:42;1.10;1.00
5218;DHT22;26539;51.064;6.346;2023-12-04T02:13:08;1.10;99.90
5218;DHT22;26539;51.064;6.346;2023-12-04T02:15:34;1.00;99.90
5218;DHT22;26539;51.064;6.346;2023-12-04T02:18:01;1.00;1.00
5218;DHT22;26539;51.064;6.346;2023-12-04T02:20:31;1.00;1.00
5218;DHT22;26539;51.064;6.346;2023-12-04T02:22:57;1.00;1.00
5218;DHT22;26539;51.064;6.346;2023-12-04T02:25:23;1.00;1.00
5218;DHT22;26539;51.064;6.346;2023-12-04T02:27:52;1.00;1.00
5218;DHT22;26539;51.064;6.346;2023-12-04T02:30:22;1.00;1.00
5218;DHT22;26539;51.064;6.346;2023-12-04T02:32:48;1.00;99.90
5218;DHT22;26539;51.064;6.346;2023-12-04T02:35:19;1.00;1.00
5218;DHT22;26539;51.064;6.346;2023-12-04T02:37:47;1.00;1.00
5218;DHT22;26539;51.064;6.346;2023-12-04T02:40:13;1.00;99.90
5218;DHT22;26539;51.064;6.346;2023-12-04T02:42:39;1.00;99.90
5218;DHT22;26539;51.064;6.346;2023-12-04T02:45:05;1.00;99.90
5218;DHT22;26539;51.064;6.346;2023-12-04T02:47:31;1.00;1.00
5218;DHT22;26539;51.064;6.346;2023-12-04T02:49:56;0.90;99.90
5218;DHT22;26539;51.064;6.346;2023-12-04T02:52:22;0.90;14.80
5218;DHT22;26539;51.064;6.346;2023-12-04T02:54:48;0.90;99.90
5218;DHT22;26539;51.064;6.346;2023-12-04T02:57:13;0.90;1.00
5218;DHT22;26539;51.064;6.346;2023-12-04T02:59:39;0.90;99.90
5218;DHT22;26539;51.064;6.346;2023-12-04T03:02:05;0.90;99.90
5218;DHT22;26539;51.064;6.346;2023-12-04T03:04:31;0.90;1.00
5218;DHT22;26539;51.064;6.346;2023-12-04T03:06:56;0.80;1.00
5218;DHT22;26539;51.064;6.346;2023-12-04T03:09:22;0.80;99.90
5218;DHT22;26539;51.064;6.346;2023-12-04T03:11:48;0.80;99.90
5218;DHT22;26539;51.064;6.346;2023-12-04T03:14:14;0.80;3.30
5218;DHT22;26539;51.064;6.346;2023-12-04T03:16:39;0.80;1.00
5218;DHT22;26539;51.064;6.346;2023-12-04T03:19:05;0.80;1.00
5218;DHT22;26539;51.064;6.346;2023-12-04T03:21:31;0.80;1.00
5218;DHT22;26539;51.064;6.346;2023-12-04T03:23:57;0.90;99.90
5218;DHT22;26539;51.064;6.346;2023-12-04T03:26:23;0.90;27.30
5218;DHT22;26539;51.064;6.346;2023-12-04T03:28:48;0.90;1.00
5218;DHT22;26539;51.064;6.346;2023-12-04T03:31:14;0.90;1.00
5218;DHT22;26539;51.064;6.346;2023-12-04T03:33:40;0.80;1.00
5218;DHT22;26539;51.064;6.346;2023-12-04T03:36:06;0.80;1.00
5218;DHT22;26539;51.064;6.346;2023-12-04T03:38:32;0.80;1.00
5218;DHT22;26539;51.064;6.346;2023-12-04T03:40:57;0.80;1.00
5218;DHT22;26539;51.064;6.346;2023-12-04T03:43:23;0.80;1.00
5218;DHT22;26539;51.064;6.346;2023-12-04T03:45:49;0.80;99.90
5218;DHT22;26539;51.064;6.346;2023-12-04T03:48:14;0.80;1.00
5218;DHT22;26539;51.064;6.346;2023-12-04T03:50:42;0.80;99.90
5218;DHT22;26539;51.064;6.346;2023-12-04T03:53:08;0.80;99.90
5218;DHT22;26539;51.064;6.346;2023-12-04T03:55:34;0.80;1.00
5218;DHT22;26539;51.064;6.346;2023-12-04T03:57:59;0.80;99.90
5218;DHT22;26539;51.064;6.346;2023-12-04T04:00:25;0.80;99.90
5218;DHT22;26539;51.064;6.346;2023-12-04T04:02:51;0.80;99.90
5218;DHT22;26539;51.064;6.346;2023-12-04T04:05:16;0.80;99.90
5218;DHT22;26539;51.064;6.346;2023-12-04T04:07:42;0.70;99.90
5218;DHT22;26539;51.064;6.346;2023-12-04T04:10:08;0.80;1.00
5218;DHT22;26539;51.064;6.346;2023-12-04T04:12:34;0.80;1.00
5218;DHT22;26539;51.064;6.346;2023-12-04T04:15:00;0.70;99.90
5218;DHT22;26539;51.064;6.346;2023-12-04T04:17:26;0.70;99.90
5218;DHT22;26539;51.064;6.346;2023-12-04T04:19:52;0.70;99.90
5218;DHT22;26539;51.064;6.346;2023-12-04T04:22:21;0.70;1.00
5218;DHT22;26539;51.064;6.346;2023-12-04T04:24:50;0.70;99.90
5218;DHT22;26539;51.064;6.346;2023-12-04T04:27:16;0.70;99.90
5218;DHT22;26539;51.064;6.346;2023-12-04T04:29:42;0.70;51.10
5218;DHT22;26539;51.064;6.346;2023-12-04T04:32:07;0.80;38.50
5218;DHT22;26539;51.064;6.346;2023-12-04T04:34:33;0.80;1.00
5218;DHT22;26539;51.064;6.346;2023-12-04T04:36:59;0.80;1.00
5218;DHT22;26539;51.064;6.346;2023-12-04T04:39:24;0.70;1.00
5218;DHT22;26539;51.064;6.346;2023-12-04T04:41:50;0.70;1.00
5218;DHT22;26539;51.064;6.346;2023-12-04T04:44:15;0.70;1.00
5218;DHT22;26539;51.064;6.346;2023-12-04T04:46:41;0.60;1.00
5218;DHT22;26539;51.064;6.346;2023-12-04T04:49:07;0.60;1.00
5218;DHT22;26539;51.064;6.346;2023-12-04T04:51:33;0.60;1.00
5218;DHT22;26539;51.064;6.346;2023-12-04T04:54:00;0.60;1.00
5218;DHT22;26539;51.064;6.346;2023-12-04T04:56:26;0.60;1.00
5218;DHT22;26539;51.064;6.346;2023-12-04T04:58:51;0.60;99.90
5218;DHT22;26539;51.064;6.346;2023-12-04T05:01:17;0.50;99.90
5218;DHT22;26539;51.064;6.346;2023-12-04T05:03:43;0.50;99.90
5218;DHT22;26539;51.064;6.346;2023-12-04T05:06:09;0.60;99.90
5218;DHT22;26539;51.064;6.346;2023-12-04T05:08:35;0.60;99.90
5218;DHT22;26539;51.064;6.346;2023-12-04T05:11:00;0.60;99.90
5218;DHT22;26539;51.064;6.346;2023-12-04T05:13:26;0.60;99.90
5218;DHT22;26539;51.064;6.346;2023-12-04T05:15:52;0.60;99.90
5218;DHT22;26539;51.064;6.346;2023-12-04T05:18:17;0.60;99.90
5218;DHT22;26539;51.064;6.346;2023-12-04T05:20:43;0.60;99.90
5218;DHT22;26539;51.064;6.346;2023-12-04T05:23:09;0.60;99.90
5218;DHT22;26539;51.064;6.346;2023-12-04T05:25:35;0.60;99.90
5218;DHT22;26539;51.064;6.346;2023-12-04T05:28:00;0.60;69.30
5218;DHT22;26539;51.064;6.346;2023-12-04T05:30:26;0.60;99.90
5218;DHT22;26539;51.064;6.346;2023-12-04T05:32:51;0.60;99.90
5218;DHT22;26539;51.064;6.346;2023-12-04T05:35:17;0.60;1.00
5218;DHT22;26539;51.064;6.346;2023-12-04T05:37:43;0.60;38.50
5218;DHT22;26539;51.064;6.346;2023-12-04T05:40:09;0.70;44.10
5218;DHT22;26539;51.064;6.346;2023-12-04T05:42:36;0.70;25.40
5218;DHT22;26539;51.064;6.346;2023-12-04T05:45:02;0.70;1.00
5218;DHT22;26539;51.064;6.346;2023-12-04T05:47:28;0.70;52.20
5218;DHT22;26539;51.064;6.346;2023-12-04T05:49:53;0.70;1.00
5218;DHT22;26539;51.064;6.346;2023-12-04T05:52:20;0.70;1.00
5218;DHT22;26539;51.064;6.346;2023-12-04T05:54:46;0.80;1.00
5218;DHT22;26539;51.064;6.346;2023-12-04T05:57:11;0.80;1.00
5218;DHT22;26539;51.064;6.346;2023-12-04T05:59:37;0.80;1.00
5218;DHT22;26539;51.064;6.346;2023-12-04T06:02:03;0.80;1.00
5218;DHT22;26539;51.064;6.346;2023-12-04T06:04:29;0.80;1.00
5218;DHT22;26539;51.064;6.346;2023-12-04T06:06:54;0.80;1.00
5218;DHT22;26539;51.064;6.346;2023-12-04T06:09:20;0.90;1.00
5218;DHT22;26539;51.064;6.346;2023-12-04T06:11:45;0.80;1.00
5218;DHT22;26539;51.064;6.346;2023-12-04T06:14:11;0.90;1.00
5218;DHT22;26539;51.064;6.346;2023-12-04T06:16:37;0.90;99.90
5218;DHT22;26539;51.064;6.346;2023-12-04T06:19:03;0.90;99.90
5218;DHT22;26539;51.064;6.346;2023-12-04T06:21:31;0.90;99.90
5218;DHT22;26539;51.064;6.346;2023-12-04T06:23:57;0.90;99.90
5218;DHT22;26539;51.064;6.346;2023-12-04T06:26:24;0.90;99.90
5218;DHT22;26539;51.064;6.346;2023-12-04T06:28:49;0.90;99.90
5218;DHT22;26539;51.064;6.346;2023-12-04T06:31:15;0.90;99.90
5218;DHT22;26539;51.064;6.346;2023-12-04T06:33:42;0.90;99.90
5218;DHT22;26539;51.064;6.346;2023-12-04T06:36:08;0.90;99.90
5218;DHT22;26539;51.064;6.346;2023-12-04T06:38:37;0.90;99.90
5218;DHT22;26539;51.064;6.346;2023-12-04T06:41:05;0.90;99.90
5218;DHT22;26539;51.064;6.346;2023-12-04T06:43:31;0.90;99.90
5218;DHT22;26539;51.064;6.346;2023-12-04T06:45:57;1.00;99.90
5218;DHT22;26539;51.064;6.346;2023-12-04T06:48:24;1.00;99.90
5218;DHT22;26539;51.064;6.346;2023-12-04T06:50:50;1.00;99.90
5218;DHT22;26539;51.064;6.346;2023-12-04T06:53:16;1.00;99.90
5218;DHT22;26539;51.064;6.346;2023-12-04T06:55:41;1.00;99.90
5218;DHT22;26539;51.064;6.346;2023-12-04T06:58:07;1.00;99.90
5218;DHT22;26539;51.064;6.346;2023-12-04T07:00:32;1.00;99.90
5218;DHT22;26539;51.064;6.346;2023-12-04T07:02:58;1.10;99.90
5218;DHT22;26539;51.064;6.346;2023-12-04T07:05:23;1.10;99.90
5218;DHT22;26539;51.064;6.346;2023-12-04T07:07:49;1.10;99.90
5218;DHT22;26539;51.064;6.346;2023-12-04T07:10:15;1.10;99.90
5218;DHT22;26539;51.064;6.346;2023-12-04T07:12:41;1.10;99.90
5218;DHT22;26539;51.064;6.346;2023-12-04T07:15:11;1.20;99.90
5218;DHT22;26539;51.064;6.346;2023-12-04T07:17:38;1.40;99.90
5218;DHT22;26539;51.064;6.346;2023-12-04T07:20:04;1.40;99.90
5218;DHT22;26539;51.064;6.346;2023-12-04T07:22:33;1.50;99.90
5218;DHT22;26539;51.064;6.346;2023-12-04T07:24:59;1.50;89.80
5218;DHT22;26539;51.064;6.346;2023-12-04T07:27:24;1.50;99.90
5218;DHT22;26539;51.064;6.346;2023-12-04T07:29:50;1.50;86.70
5218;DHT22;26539;51.064;6.346;2023-12-04T07:32:15;1.50;38.10
5218;DHT22;26539;51.064;6.346;2023-12-04T07:34:41;1.60;48.40
5218;DHT22;26539;51.064;6.346;2023-12-04T07:37:06;1.60;99.70
5218;DHT22;26539;51.064;6.346;2023-12-04T07:39:32;1.50;99.90
5218;DHT22;26539;51.064;6.346;2023-12-04T07:41:58;1.50;99.90
5218;DHT22;26539;51.064;6.346;2023-12-04T07:44:23;1.50;99.90
5218;DHT22;26539;51.064;6.346;2023-12-04T07:46:49;1.50;99.90
5218;DHT22;26539;51.064;6.346;2023-12-04T07:49:14;1.50;99.90
5218;DHT22;26539;51.064;6.346;2023-12-04T07:51:40;1.50;99.90
5218;DHT22;26539;51.064;6.346;2023-12-04T07:54:05;1.50;99.90
5218;DHT22;26539;51.064;6.346;2023-12-04T07:56:31;1.40;99.90
5218;DHT22;26539;51.064;6.346;2023-12-04T07:58:56;1.50;99.90
5218;DHT22;26539;51.064;6.346;2023-12-04T08:01:23;1.50;99.90
5218;DHT22;26539;51.064;6.346;2023-12-04T08:03:52;1.40;99.90
5218;DHT22;26539;51.064;6.346;2023-12-04T08:06:20;1.40;99.90
5218;DHT22;26539;51.064;6.346;2023-12-04T08:08:46;1.30;99.90
5218;DHT22;26539;51.064;6.346;2023-12-04T08:11:11;1.30;99.90
5218;DHT22;26539;51.064;6.346;2023-12-04T08:13:45;1.30;99.90
5218;DHT22;26539;51.064;6.346;2023-12-04T08:16:17;1.30;1.00
5218;DHT22;26539;51.064;6.346;2023-12-04T08:18:43;1.40;99.90
5218;DHT22;26539;51.064;6.346;2023-12-04T08:21:09;1.30;99.90
5218;DHT22;26539;51.064;6.346;2023-12-04T08:23:35;1.40;99.90
5218;DHT22;26539;51.064;6.346;2023-12-04T08:26:01;1.40;99.90
5218;DHT22;26539;51.064;6.346;2023-12-04T08:28:26;1.40;99.90
5218;DHT22;26539;51.064;6.346;2023-12-04T08:30:52;1.40;1.00
5218;DHT22;26539;51.064;6.346;2023-12-04T08:33:17;1.50;99.90
5218;DHT22;26539;51.064;6.346;2023-12-04T08:35:45;1.50;99.90
5218;DHT22;26539;51.064;6.346;2023-12-04T08:38:11;1.50;99.90
5218;DHT22;26539;51.064;6.346;2023-12-04T08:40:36;1.60;99.90
5218;DHT22;26539;51.064;6.346;2023-12-04T08:43:02;1.70;99.90
5218;DHT22;26539;51.064;6.346;2023-12-04T08:45:29;1.80;99.90
5218;DHT22;26539;51.064;6.346;2023-12-04T08:47:55;1.80;99.90
5218;DHT22;26539;51.064;6.346;2023-12-04T08:50:21;1.80;99.90
5218;DHT22;26539;51.064;6.346;2023-12-04T08:52:46;1.90;99.90
5218;DHT22;26539;51.064;6.346;2023-12-04T08:55:12;1.90;99.90
5218;DHT22;26539;51.064;6.346;2023-12-04T08:57:37;2.00;99.90
5218;DHT22;26539;51.064;6.346;2023-12-04T09:00:04;2.00;99.90
5218;DHT22;26539;51.064;6.346;2023-12-04T09:02:33;2.10;75.70
5218;DHT22;26539;51.064;6.346;2023-12-04T09:04:59;2.10;56.20
5218;DHT22;26539;51.064;6.346;2023-12-04T09:07:25;2.10;26.20
5218;DHT22;26539;51.064;6.346;2023-12-04T09:09:51;2.10;22.40
5218;DHT22;26539;51.064;6.346;2023-12-04T09:12:16;2.20;13.00
5218;DHT22;26539;51.064;6.346;2023-12-04T09:14:43;2.30;1.00
5218;DHT22;26539;51.064;6.346;2023-12-04T09:17:08;2.40;1.00
5218;DHT22;26539;51.064;6.346;2023-12-04T09:19:34;2.40;1.00
5218;DHT22;26539;51.064;6.346;2023-12-04T09:22:00;2.40;1.00
5218;DHT22;26539;51.064;6.346;2023-12-04T09:24:26;2.40;1.00
5218;DHT22;26539;51.064;6.346;2023-12-04T09:26:53;2.40;1.00
5218;DHT22;26539;51.064;6.346;2023-12-04T09:29:20;2.40;1.00
5218;DHT22;26539;51.064;6.346;2023-12-04T09:31:53;2.50;1.00
5218;DHT22;26539;51.064;6.346;2023-12-04T09:34:19;2.40;1.00
5218;DHT22;26539;51.064;6.346;2023-12-04T09:36:46;2.40;1.00
5218;DHT22;26539;51.064;6.346;2023-12-04T09:39:13;2.50;1.00
5218;DHT22;26539;51.064;6.346;2023-12-04T09:41:43;2.40;1.00
5218;DHT22;26539;51.064;6.346;2023-12-04T09:44:12;2.50;1.00
5218;DHT22;26539;51.064;6.346;2023-12-04T09:46:38;2.50;1.00
5218;DHT22;26539;51.064;6.346;2023-12-04T09:49:04;2.40;1.00
5218;DHT22;26539;51.064;6.346;2023-12-04T09:51:30;2.40;1.00
5218;DHT22;26539;51.064;6.346;2023-12-04T09:53:57;2.50;1.00
5218;DHT22;26539;51.064;6.346;2023-12-04T09:56:25;2.50;1.00
5218;DHT22;26539;51.064;6.346;2023-12-04T09:58:55;2.50;1.00
5218;DHT22;26539;51.064;6.346;2023-12-04T10:01:24;2.50;1.00
5218;DHT22;26539;51.064;6.346;2023-12-04T10:03:50;2.50;1.00
5218;DHT22;26539;51.064;6.346;2023-12-04T10:06:22;2.60;1.00
5218;DHT22;26539;51.064;6.346;2023-12-04T10:08:49;2.50;1.00
5218;DHT22;26539;51.064;6.346;2023-12-04T10:11:16;2.60;1.00
5218;DHT22;26539;51.064;6.346;2023-12-04T10:13:42;2.60;1.00
5218;DHT22;26539;51.064;6.346;2023-12-04T10:16:08;2.60;1.00
5218;DHT22;26539;51.064;6.346;2023-12-04T10:18:33;2.60;1.00
5218;DHT22;26539;51.064;6.346;2023-12-04T10:21:00;2.70;1.00
5218;DHT22;26539;51.064;6.346;2023-12-04T10:23:41;2.50;1.00
5218;DHT22;26539;51.064;6.346;2023-12-04T10:26:10;2.60;1.00
5218;DHT22;26539;51.064;6.346;2023-12-04T10:28:58;2.80;1.00
5218;DHT22;26539;51.064;6.346;2023-12-04T10:31:25;2.80;1.00
5218;DHT22;26539;51.064;6.346;2023-12-04T10:33:53;2.80;1.00
5218;DHT22;26539;51.064;6.346;2023-12-04T10:36:23;2.80;1.00
5218;DHT22;26539;51.064;6.346;2023-12-04T10:38:58;2.70;1.00
5218;DHT22;26539;51.064;6.346;2023-12-04T10:41:25;2.70;1.00
5218;DHT22;26539;51.064;6.346;2023-12-04T10:43:51;2.80;1.00
5218;DHT22;26539;51.064;6.346;2023-12-04T10:46:17;2.70;1.00
5218;DHT22;26539;51.064;6.346;2023-12-04T10:48:45;2.60;1.00
5218;DHT22;26539;51.064;6.346;2023-12-04T10:51:12;2.80;1.00
5218;DHT22;26539;51.064;6.346;2023-12-04T10:53:38;2.80;1.00
5218;DHT22;26539;51.064;6.346;2023-12-04T10:56:08;2.90;1.00
5218;DHT22;26539;51.064;6.346;2023-12-04T10:58:36;2.80;4.00
5218;DHT22;26539;51.064;6.346;2023-12-04T11:01:06;2.90;44.40
5218;DHT22;26539;51.064;6.346;2023-12-04T11:03:45;3.00;99.90
5218;DHT22;26539;51.064;6.346;2023-12-04T11:06:16;3.10;99.90
5218;DHT22;26539;51.064;6.346;2023-12-04T11:08:43;3.30;99.90
5218;DHT22;26539;51.064;6.346;2023-12-04T11:11:29;3.40;99.90
5218;DHT22;26539;51.064;6.346;2023-12-04T11:14:00;3.30;99.90
5218;DHT22;26539;51.064;6.346;2023-12-04T11:16:37;3.30;99.90
5218;DHT22;26539;51.064;6.346;2023-12-04T11:19:18;3.30;1.00
5218;DHT22;26539;51.064;6.346;2023-12-04T11:21:45;3.20;29.20
5218;DHT22;26539;51.064;6.346;2023-12-04T11:24:12;3.00;1.00
5218;DHT22;26539;51.064;6.346;2023-12-04T11:26:39;2.90;1.00
5218;DHT22;26539;51.064;6.346;2023-12-04T11:29:06;2.70;1.00
5218;DHT22;26539;51.064;6.346;2023-12-04T11:31:32;2.80;36.70
5218;DHT22;26539;51.064;6.346;2023-12-04T11:34:04;2.80;99.90
5218;DHT22;26539;51.064;6.346;2023-12-04T11:36:30;2.90;99.90
5218;DHT22;26539;51.064;6.346;2023-12-04T11:38:55;3.00;46.40
5218;DHT22;26539;51.064;6.346;2023-12-04T11:41:25;3.10;1.00
5218;DHT22;26539;51.064;6.346;2023-12-04T11:43:51;3.00;99.90
5218;DHT22;26539;51.064;6.346;2023-12-04T11:46:22;3.00;99.90
5218;DHT22;26539;51.064;6.346;2023-12-04T11:48:49;2.80;1.00
5218;DHT22;26539;51.064;6.346;2023-12-04T11:53:59;2.50;99.90
5218;DHT22;26539;51.064;6.346;2023-12-04T11:56:25;2.50;1.00
5218;DHT22;26539;51.064;6.346;2023-12-04T11:58:50;2.50;1.00
5218;DHT22;26539;51.064;6.346;2023-12-04T12:01:17;2.40;1.00
5218;DHT22;26539;51.064;6.346;2023-12-04T12:03:43;2.30;1.00
5218;DHT22;26539;51.064;6.346;2023-12-04T12:06:09;2.20;1.00
5218;DHT22;26539;51.064;6.346;2023-12-04T12:08:35;2.20;1.00
5218;DHT22;26539;51.064;6.346;2023-12-04T12:11:00;2.10;1.00
5218;DHT22;26539;51.064;6.346;2023-12-04T12:13:26;2.00;1.00
5218;DHT22;26539;51.064;6.346;2023-12-04T12:15:52;2.00;1.00
5218;DHT22;26539;51.064;6.346;2023-12-04T12:18:18;1.90;1.00
5218;DHT22;26539;51.064;6.346;2023-12-04T12:20:43;1.90;1.00
5218;DHT22;26539;51.064;6.346;2023-12-04T12:23:09;1.90;1.00
5218;DHT22;26539;51.064;6.346;2023-12-04T12:25:35;1.90;1.00
5218;DHT22;26539;51.064;6.346;2023-12-04T12:28:07;1.90;1.00
5218;DHT22;26539;51.064;6.346;2023-12-04T12:30:33;1.90;1.00
5218;DHT22;26539;51.064;6.346;2023-12-04T12:32:59;2.00;1.00
5218;DHT22;26539;51.064;6.346;2023-12-04T12:35:25;2.10;1.00
5218;DHT22;26539;51.064;6.346;2023-12-04T12:37:50;2.20;1.00
5218;DHT22;26539;51.064;6.346;2023-12-04T12:40:20;2.20;1.00
5218;DHT22;26539;51.064;6.346;2023-12-04T12:42:46;2.30;1.00
5218;DHT22;26539;51.064;6.346;2023-12-04T12:45:12;2.40;1.00
5218;DHT22;26539;51.064;6.346;2023-12-04T12:47:40;2.40;1.00
5218;DHT22;26539;51.064;6.346;2023-12-04T12:50:08;2.40;99.90
5218;DHT22;26539;51.064;6.346;2023-12-04T12:52:36;2.50;1.00
5218;DHT22;26539;51.064;6.346;2023-12-04T12:55:02;2.40;99.90
5218;DHT22;26539;51.064;6.346;2023-12-04T12:57:28;2.40;99.90
5218;DHT22;26539;51.064;6.346;2023-12-04T12:59:53;2.30;99.90
5218;DHT22;26539;51.064;6.346;2023-12-04T13:02:20;2.30;99.90
5218;DHT22;26539;51.064;6.346;2023-12-04T13:04:46;2.30;99.90
5218;DHT22;26539;51.064;6.346;2023-12-04T13:07:11;2.30;99.90
5218;DHT22;26539;51.064;6.346;2023-12-04T13:09:37;2.40;99.90
5218;DHT22;26539;51.064;6.346;2023-12-04T13:12:04;2.30;99.90
5218;DHT22;26539;51.064;6.346;2023-12-04T13:14:30;2.30;99.90
5218;DHT22;26539;51.064;6.346;2023-12-04T13:16:55;2.30;60.90
5218;DHT22;26539;51.064;6.346;2023-12-04T13:19:24;2.30;99.90
5218;DHT22;26539;51.064;6.346;2023-12-04T13:21:50;2.20;40.80
5218;DHT22;26539;51.064;6.346;2023-12-04T13:24:16;2.10;59.10
5218;DHT22;26539;51.064;6.346;2023-12-04T13:26:43;2.20;99.90
5218;DHT22;26539;51.064;6.346;2023-12-04T13:29:08;2.30;99.90
5218;DHT22;26539;51.064;6.346;2023-12-04T13:31:34;2.40;12.60
5218;DHT22;26539;51.064;6.346;2023-12-04T13:34:00;2.50;1.00
5218;DHT22;26539;51.064;6.346;2023-12-04T13:36:25;2.70;1.00
5218;DHT22;26539;51.064;6.346;2023-12-04T13:38:52;2.70;1.00
5218;DHT22;26539;51.064;6.346;2023-12-04T13:41:18;2.70;1.00
5218;DHT22;26539;51.064;6.346;2023-12-04T13:44:04;2.80;1.00
5218;DHT22;26539;51.064;6.346;2023-12-04T13:46:30;2.80;1.00
5218;DHT22;26539;51.064;6.346;2023-12-04T13:48:56;2.70;99.90
5218;DHT22;26539;51.064;6.346;2023-12-04T13:51:22;2.70;1.00
5218;DHT22;26539;51.064;6.346;2023-12-04T13:53:48;2.60;1.00
5218;DHT22;26539;51.064;6.346;2023-12-04T13:56:16;2.60;1.00
5218;DHT22;26539;51.064;6.346;2023-12-04T13:59:00;2.60;99.90
5218;DHT22;26539;51.064;6.346;2023-12-04T14:01:27;2.50;99.90
5218;DHT22;26539;51.064;6.346;2023-12-04T14:03:56;2.40;99.90
5218;DHT22;26539;51.064;6.346;2023-12-04T14:06:27;2.40;99.90
5218;DHT22;26539;51.064;6.346;2023-12-04T14:08:52;2.30;99.90
5218;DHT22;26539;51.064;6.346;2023-12-04T14:11:18;2.30;99.90
5218;DHT22;26539;51.064;6.346;2023-12-04T14:13:43;2.30;99.90
5218;DHT22;26539;51.064;6.346;2023-12-04T14:16:09;2.30;99.90
5218;DHT22;26539;51.064;6.346;2023-12-04T14:18:35;2.20;99.90
5218;DHT22;26539;51.064;6.346;2023-12-04T14:21:01;2.20;99.90
5218;DHT22;26539;51.064;6.346;2023-12-04T14:23:27;2.20;99.90
5218;DHT22;26539;51.064;6.346;2023-12-04T14:25:52;2.30;99.90
5218;DHT22;26539;51.064;6.346;2023-12-04T14:28:18;2.30;99.90
5218;DHT22;26539;51.064;6.346;2023-12-04T14:30:43;2.30;99.90
5218;DHT22;26539;51.064;6.346;2023-12-04T14:33:09;2.30;99.90
5218;DHT22;26539;51.064;6.346;2023-12-04T14:35:36;2.20;99.90
5218;DHT22;26539;51.064;6.346;2023-12-04T14:38:04;2.20;99.90
5218;DHT22;26539;51.064;6.346;2023-12-04T14:40:30;2.20;99.90
5218;DHT22;26539;51.064;6.346;2023-12-04T14:42:56;2.10;99.90
5218;DHT22;26539;51.064;6.346;2023-12-04T14:45:21;2.10;99.90
5218;DHT22;26539;51.064;6.346;2023-12-04T14:47:47;2.10;99.90
5218;DHT22;26539;51.064;6.346;2023-12-04T14:50:13;2.10;1.00
5218;DHT22;26539;51.064;6.346;2023-12-04T14:52:39;2.10;1.00
5218;DHT22;26539;51.064;6.346;2023-12-04T14:55:12;2.00;1.00
5218;DHT22;26539;51.064;6.346;2023-12-04T14:57:53;2.00;1.00
5218;DHT22;26539;51.064;6.346;2023-12-04T15:00:37;1.90;1.00
5218;DHT22;26539;51.064;6.346;2023-12-04T15:03:21;1.90;1.00
5218;DHT22;26539;51.064;6.346;2023-12-04T15:06:13;1.80;1.00
5218;DHT22;26539;51.064;6.346;2023-12-04T15:08:39;1.70;1.00
5218;DHT22;26539;51.064;6.346;2023-12-04T15:11:10;1.60;1.00
5218;DHT22;26539;51.064;6.346;2023-12-04T15:14:07;1.60;1.00
5218;DHT22;26539;51.064;6.346;2023-12-04T15:16:45;1.60;1.00
5218;DHT22;26539;51.064;6.346;2023-12-04T15:19:25;1.50;1.00
5218;DHT22;26539;51.064;6.346;2023-12-04T15:22:00;1.60;1.00
5218;DHT22;26539;51.064;6.346;2023-12-04T15:24:26;1.60;1.00
5218;DHT22;26539;51.064;6.346;2023-12-04T15:26:51;1.60;1.00
5218;DHT22;26539;51.064;6.346;2023-12-04T15:29:17;1.60;1.00
5218;DHT22;26539;51.064;6.346;2023-12-04T15:31:46;1.60;1.00
5218;DHT22;26539;51.064;6.346;2023-12-04T15:34:11;1.60;1.00
5218;DHT22;26539;51.064;6.346;2023-12-04T15:36:37;1.60;1.00
5218;DHT22;26539;51.064;6.346;2023-12-04T15:39:02;1.60;1.00
5218;DHT22;26539;51.064;6.346;2023-12-04T15:41:28;1.60;1.00
5218;DHT22;26539;51.064;6.346;2023-12-04T15:43:53;1.60;1.00
5218;DHT22;26539;51.064;6.346;2023-12-04T15:46:19;1.60;1.00
5218;DHT22;26539;51.064;6.346;2023-12-04T15:48:45;1.60;1.00
5218;DHT22;26539;51.064;6.346;2023-12-04T15:51:11;1.50;1.00
5218;DHT22;26539;51.064;6.346;2023-12-04T15:53:37;1.60;1.00
5218;DHT22;26539;51.064;6.346;2023-12-04T15:56:04;1.50;1.00
5218;DHT22;26539;51.064;6.346;2023-12-04T15:58:30;1.60;1.00
5218;DHT22;26539;51.064;6.346;2023-12-04T16:00:58;1.50;1.00
5218;DHT22;26539;51.064;6.346;2023-12-04T16:03:24;1.50;3.20
5218;DHT22;26539;51.064;6.346;2023-12-04T16:05:50;1.50;1.00
5218;DHT22;26539;51.064;6.346;2023-12-04T16:08:15;1.50;1.60
5218;DHT22;26539;51.064;6.346;2023-12-04T16:10:41;1.50;5.90